Time;durP1;ratioP1;P1;durP2;ratioP2;P2;SDS_P1;SDS_P2;PMS_P1;PMS_P2;Temp;Humidity;BMP_temperature;BMP_pressure;BME280_temperature;BME280_humidity;BME280_pressure;Samples;Min_cycle;Max_cycle;Signal;HPM_P1;HPM_P2
2022/01/06 00:00:29;;;;;;;1.30;1.20;;;6.50;75.80;;;;;;6377141;27;20526;-62
2022/01/06 00:03:33;;;;;;;1.50;1.40;;;6.50;75.80;;;;;;6377150;27;20471;-62
2022/01/06 00:06:39;;;;;;;1.90;1.40;;;6.50;75.40;;;;;;6377568;27;20465;-62
2022/01/06 00:09:43;;;;;;;0.90;0.90;;;6.50;75.20;;;;;;6376714;27;20523;-62
2022/01/06 00:13:00;;;;;;;2.93;1.47;;;6.60;75.30;;;;;;6376545;27;20430;-62
2022/01/06 00:16:13;;;;;;;3.00;1.60;;;6.50;75.30;;;;;;6353648;27;20490;-61
2022/01/06 00:26:00;;;;;;;1.77;1.60;;;6.60;76.00;;;;;;6375746;27;20531;-63
2022/01/06 00:29:03;;;;;;;2.73;1.60;;;6.60;76.00;;;;;;6376310;27;20474;-62
2022/01/06 00:32:09;;;;;;;5.17;2.67;;;6.60;76.00;;;;;;6376388;27;20486;-62
2022/01/06 00:35:12;;;;;;;3.53;2.70;;;6.60;76.60;;;;;;6376355;27;21038;-61
2022/01/06 00:38:15;;;;;;;3.20;2.20;;;6.70;77.30;;;;;;6376207;27;20963;-61
2022/01/06 00:41:18;;;;;;;3.47;2.70;;;6.70;77.60;;;;;;6376579;27;20485;-61
2022/01/06 00:44:21;;;;;;;2.83;2.00;;;6.70;77.60;;;;;;6376427;27;20470;-61
2022/01/06 00:47:26;;;;;;;2.50;2.00;;;6.60;77.20;;;;;;6375876;27;20804;-61
2022/01/06 00:50:29;;;;;;;2.23;1.60;;;6.60;75.80;;;;;;6363610;27;20478;-61
2022/01/06 00:53:32;;;;;;;2.90;1.80;;;6.60;76.80;;;;;;6359345;27;20516;-61
2022/01/06 00:56:35;;;;;;;4.00;1.90;;;6.50;76.70;;;;;;6350932;27;20536;-64
2022/01/06 00:59:38;;;;;;;1.60;1.50;;;6.60;76.30;;;;;;6350680;27;20467;-63
2022/01/06 01:02:44;;;;;;;0.93;0.93;;;6.60;75.40;;;;;;6350168;27;20529;-63
2022/01/06 01:05:49;;;;;;;3.93;1.40;;;6.40;76.30;;;;;;6350172;27;20529;-63
2022/01/06 01:08:53;;;;;;;1.20;1.10;;;6.40;77.30;;;;;;6350479;27;20474;-63
2022/01/06 01:11:56;;;;;;;2.17;1.40;;;6.40;77.80;;;;;;6370198;27;20958;-63
2022/01/06 01:15:05;;;;;;;0.97;0.97;;;6.40;78.00;;;;;;6361932;27;20459;-63
2022/01/06 01:18:10;;;;;;;1.27;1.17;;;6.40;78.60;;;;;;6346089;27;20551;-63
2022/01/06 01:21:14;;;;;;;1.93;1.17;;;6.40;78.90;;;;;;6372744;27;20481;-63
2022/01/06 01:24:17;;;;;;;1.10;1.00;;;6.40;79.10;;;;;;6352034;27;20471;-63
2022/01/06 01:27:22;;;;;;;3.67;1.63;;;6.40;79.60;;;;;;6349617;27;20463;-63
2022/01/06 01:30:31;;;;;;;1.90;1.40;;;6.40;79.70;;;;;;6349800;27;20464;-63
2022/01/06 01:33:37;;;;;;;1.87;1.23;;;6.30;80.20;;;;;;6339574;27;20480;-63
2022/01/06 01:36:42;;;;;;;2.43;1.53;;;6.20;81.10;;;;;;6349960;27;20423;-63
2022/01/06 01:39:46;;;;;;;1.30;1.20;;;6.00;81.80;;;;;;6350044;27;20460;-63
2022/01/06 01:42:49;;;;;;;1.50;1.40;;;6.10;82.80;;;;;;6350251;27;20486;-63
2022/01/06 01:45:56;;;;;;;1.40;1.27;;;6.10;83.20;;;;;;6373791;27;20481;-63
2022/01/06 01:49:27;;;;;;;1.43;1.33;;;6.10;83.40;;;;;;6371177;27;20546;-63
2022/01/06 01:52:30;;;;;;;2.20;1.63;;;6.10;83.20;;;;;;6349564;27;20960;-63
2022/01/06 01:55:34;;;;;;;2.30;2.10;;;6.10;82.90;;;;;;6357810;27;20837;-62
2022/01/06 01:58:39;;;;;;;1.70;1.60;;;6.10;83.40;;;;;;6375120;27;20485;-62
2022/01/06 02:01:42;;;;;;;2.67;1.40;;;6.10;84.10;;;;;;6378376;27;20481;-63
2022/01/06 02:04:50;;;;;;;3.43;1.70;;;6.10;84.10;;;;;;6380250;27;20462;-63
2022/01/06 02:07:54;;;;;;;2.80;2.20;;;6.10;84.00;;;;;;6380807;27;20467;-65
2022/01/06 02:10:57;;;;;;;1.70;1.60;;;6.10;84.90;;;;;;6380477;27;20466;-66
2022/01/06 02:14:04;;;;;;;1.80;1.40;;;6.10;85.50;;;;;;6374829;27;20475;-65
2022/01/06 02:17:07;;;;;;;1.90;1.70;;;6.10;85.70;;;;;;6338600;27;20482;-66
2022/01/06 02:20:14;;;;;;;2.40;2.17;;;6.10;86.40;;;;;;6326907;28;20491;-65
2022/01/06 02:23:17;;;;;;;1.97;1.80;;;6.10;86.90;;;;;;6328174;28;20490;-65
2022/01/06 02:26:21;;;;;;;2.60;1.60;;;6.10;87.10;;;;;;6328569;28;20463;-66
2022/01/06 02:29:24;;;;;;;2.57;1.60;;;6.10;87.10;;;;;;6328191;28;20468;-65
2022/01/06 02:32:27;;;;;;;2.80;1.40;;;6.10;87.00;;;;;;6339310;28;20463;-66
2022/01/06 02:35:33;;;;;;;2.40;1.67;;;6.10;87.20;;;;;;6347871;28;20531;-65
2022/01/06 02:38:36;;;;;;;1.50;1.40;;;6.10;88.10;;;;;;6354438;28;20464;-65
2022/01/06 02:41:39;;;;;;;1.70;1.60;;;6.00;88.90;;;;;;6352522;28;20952;-63
2022/01/06 02:44:42;;;;;;;2.57;1.53;;;6.10;88.10;;;;;;6355909;27;20788;-65
2022/01/06 02:47:46;;;;;;;2.07;1.90;;;6.00;88.10;;;;;;6355470;27;20885;-65
2022/01/06 02:50:51;;;;;;;3.00;2.20;;;6.00;88.30;;;;;;6355450;27;20483;-65
2022/01/06 02:53:54;;;;;;;3.20;2.00;;;6.00;88.40;;;;;;6355512;27;20466;-65
2022/01/06 02:56:57;;;;;;;1.90;1.80;;;6.00;88.90;;;;;;6353958;27;20535;-62
2022/01/06 03:00:01;;;;;;;1.83;1.73;;;5.90;90.10;;;;;;6353928;27;20471;-62
2022/01/06 03:03:04;;;;;;;2.30;1.80;;;6.00;90.30;;;;;;6353437;27;20567;-62
2022/01/06 03:06:08;;;;;;;1.93;1.83;;;6.00;90.10;;;;;;6353808;27;20478;-62
2022/01/06 03:09:12;;;;;;;2.10;1.97;;;6.00;90.30;;;;;;6354646;27;20467;-63
2022/01/06 03:12:23;;;;;;;3.13;2.10;;;6.00;90.50;;;;;;6352915;27;20520;-63
2022/01/06 03:15:26;;;;;;;2.53;2.40;;;6.00;90.80;;;;;;6353509;27;20472;-63
2022/01/06 03:18:29;;;;;;;2.47;2.00;;;6.00;91.30;;;;;;6353516;27;20532;-63
2022/01/06 03:21:34;;;;;;;4.37;2.10;;;6.00;91.40;;;;;;6353747;27;20495;-63
2022/01/06 03:24:37;;;;;;;3.07;2.17;;;5.90;91.40;;;;;;6352546;27;20865;-63
2022/01/06 03:27:41;;;;;;;4.67;2.17;;;5.80;91.30;;;;;;6352959;27;20443;-63
2022/01/06 03:30:44;;;;;;;2.20;1.73;;;5.80;91.40;;;;;;6352918;27;20467;-63
2022/01/06 03:33:48;;;;;;;3.27;3.07;;;5.70;91.20;;;;;;6353382;27;20584;-63
2022/01/06 03:36:52;;;;;;;1.73;1.63;;;5.50;91.30;;;;;;6352762;27;20451;-63
2022/01/06 03:39:55;;;;;;;2.10;1.90;;;5.50;91.80;;;;;;6352448;27;20467;-63
2022/01/06 03:42:58;;;;;;;2.40;2.20;;;5.40;92.10;;;;;;6352788;27;20466;-63
2022/01/06 03:46:02;;;;;;;2.63;2.43;;;5.50;92.40;;;;;;6353036;27;20459;-63
2022/01/06 03:49:05;;;;;;;2.93;2.50;;;5.40;92.80;;;;;;6352501;27;20471;-63
2022/01/06 03:52:09;;;;;;;2.40;1.80;;;5.20;93.20;;;;;;6352455;28;20463;-63
2022/01/06 03:55:18;;;;;;;2.70;2.20;;;5.20;93.70;;;;;;6352014;28;20987;-63
2022/01/06 03:58:21;;;;;;;2.33;2.20;;;5.20;94.10;;;;;;6352592;28;20476;-63
2022/01/06 04:01:24;;;;;;;3.00;2.43;;;5.10;94.40;;;;;;6352665;28;20482;-63
2022/01/06 04:04:28;;;;;;;3.20;2.90;;;5.10;94.80;;;;;;6351835;28;20524;-63
2022/01/06 04:07:33;;;;;;;2.60;2.40;;;5.10;95.10;;;;;;6351815;28;20463;-63
2022/01/06 04:10:36;;;;;;;3.80;2.80;;;5.10;95.50;;;;;;6351468;27;20953;-63
2022/01/06 04:13:39;;;;;;;2.83;2.60;;;5.10;95.90;;;;;;6352064;28;20482;-63
2022/01/06 04:16:42;;;;;;;3.50;3.20;;;4.90;96.30;;;;;;6352111;28;20471;-63
2022/01/06 04:19:45;;;;;;;5.83;3.03;;;4.90;96.90;;;;;;6351787;28;20471;-63
2022/01/06 04:22:50;;;;;;;3.00;2.70;;;4.90;97.20;;;;;;6351086;28;20513;-63
2022/01/06 04:25:53;;;;;;;3.43;3.00;;;4.90;97.60;;;;;;6351853;28;20479;-63
2022/01/06 04:28:56;;;;;;;3.37;2.80;;;4.80;98.00;;;;;;6351421;28;20474;-63
2022/01/06 04:31:59;;;;;;;3.63;3.33;;;4.70;98.50;;;;;;6351518;28;20467;-63
2022/01/06 04:35:02;;;;;;;2.60;2.40;;;4.70;98.90;;;;;;6351294;27;20511;-63
2022/01/06 04:38:07;;;;;;;3.37;3.03;;;4.70;99.10;;;;;;6351122;28;20475;-62
2022/01/06 04:41:10;;;;;;;3.43;2.53;;;4.70;99.30;;;;;;6351261;28;20475;-62
2022/01/06 04:44:13;;;;;;;3.13;2.90;;;4.60;99.70;;;;;;6351124;28;20482;-63
2022/01/06 04:47:16;;;;;;;2.83;2.63;;;4.60;99.90;;;;;;6350905;28;20482;-62
2022/01/06 04:50:19;;;;;;;3.27;3.07;;;4.60;99.90;;;;;;6350597;28;20515;-63
2022/01/06 04:53:24;;;;;;;2.50;2.30;;;4.60;99.90;;;;;;6351008;27;20459;-62
2022/01/06 04:56:27;;;;;;;2.90;2.60;;;4.60;99.90;;;;;;6351103;27;20459;-62
2022/01/06 04:59:30;;;;;;;2.33;2.13;;;4.60;99.90;;;;;;6351974;27;20963;-63
2022/01/06 05:02:34;;;;;;;3.20;2.90;;;4.60;99.90;;;;;;6351573;27;20468;-62
2022/01/06 05:05:37;;;;;;;3.03;2.83;;;4.60;99.90;;;;;;6350653;27;20474;-63
2022/01/06 05:08:41;;;;;;;4.40;3.87;;;4.60;99.90;;;;;;6350572;27;20505;-63
2022/01/06 05:11:44;;;;;;;3.23;2.87;;;4.60;99.90;;;;;;6349467;27;20532;-63
2022/01/06 05:14:48;;;;;;;3.93;2.90;;;4.60;99.90;;;;;;6349517;27;20468;-63
2022/01/06 05:17:52;;;;;;;2.50;2.30;;;4.70;99.90;;;;;;6349969;27;20576;-63
2022/01/06 05:20:55;;;;;;;3.30;3.10;;;4.70;99.90;;;;;;6350565;27;20479;-63
2022/01/06 05:24:01;;;;;;;3.53;3.20;;;4.60;99.90;;;;;;6350498;27;20480;-62
2022/01/06 05:27:05;;;;;;;4.23;3.17;;;4.60;99.90;;;;;;6350543;27;20479;-62
2022/01/06 05:30:09;;;;;;;3.27;2.97;;;4.60;99.90;;;;;;6350150;27;20536;-62
2022/01/06 05:33:12;;;;;;;3.80;2.60;;;4.50;99.90;;;;;;6349868;27;20971;-62
2022/01/06 05:36:16;;;;;;;3.13;2.83;;;4.50;99.90;;;;;;6349916;27;20798;-62
2022/01/06 05:39:20;;;;;;;2.90;2.70;;;4.40;99.90;;;;;;6350473;27;20794;-63
2022/01/06 05:42:23;;;;;;;3.30;3.00;;;4.40;99.90;;;;;;6349466;27;20500;-63
2022/01/06 05:45:28;;;;;;;4.73;3.30;;;4.40;99.90;;;;;;6349865;27;20975;-63
2022/01/06 05:48:31;;;;;;;4.87;2.67;;;4.40;99.90;;;;;;6350141;27;20797;-62
2022/01/06 05:51:34;;;;;;;2.87;2.47;;;4.40;99.90;;;;;;6350074;27;20952;-62
2022/01/06 05:54:39;;;;;;;4.70;3.07;;;4.40;99.90;;;;;;6350442;27;20455;-62
2022/01/06 05:57:45;;;;;;;3.23;2.50;;;4.40;99.90;;;;;;6350350;27;20893;-62
2022/01/06 06:00:50;;;;;;;2.60;2.40;;;4.40;99.90;;;;;;6349687;27;20943;-62
2022/01/06 06:03:54;;;;;;;3.83;2.40;;;4.40;99.90;;;;;;6350530;27;20487;-62
2022/01/06 06:06:58;;;;;;;2.33;2.13;;;4.30;99.90;;;;;;6350140;27;20459;-62
2022/01/06 06:10:02;;;;;;;3.13;2.83;;;4.30;99.90;;;;;;6349388;27;20788;-63
2022/01/06 06:13:05;;;;;;;2.57;2.37;;;4.20;99.90;;;;;;6350140;27;20486;-62
2022/01/06 06:16:08;;;;;;;2.80;2.60;;;4.20;99.90;;;;;;6349987;27;20951;-63
2022/01/06 06:19:12;;;;;;;3.00;2.80;;;4.20;99.90;;;;;;6349707;27;20483;-63
2022/01/06 06:22:15;;;;;;;3.17;2.87;;;4.30;99.90;;;;;;6349658;27;20463;-64
2022/01/06 06:25:19;;;;;;;2.63;2.43;;;4.30;99.90;;;;;;6349420;27;20952;-62
2022/01/06 06:28:22;;;;;;;3.20;2.90;;;4.30;99.90;;;;;;6349505;27;21080;-63
2022/01/06 06:31:25;;;;;;;3.33;3.03;;;4.40;99.90;;;;;;6349591;27;20475;-63
2022/01/06 06:34:29;;;;;;;3.30;2.90;;;4.40;99.90;;;;;;6349485;27;20564;-62
2022/01/06 06:37:32;;;;;;;3.73;2.77;;;4.40;99.90;;;;;;6349612;27;20467;-62
2022/01/06 06:40:36;;;;;;;3.80;3.23;;;4.50;99.90;;;;;;6348963;27;20468;-62
2022/01/06 06:43:39;;;;;;;3.20;2.93;;;4.40;99.90;;;;;;6349762;27;20520;-62
2022/01/06 06:46:43;;;;;;;10.13;3.40;;;4.40;99.90;;;;;;6350733;27;20524;-62
2022/01/06 06:49:46;;;;;;;3.20;2.90;;;4.30;99.90;;;;;;6353877;27;20471;-62
2022/01/06 06:52:49;;;;;;;3.67;3.37;;;4.40;99.90;;;;;;6354124;28;20467;-62
2022/01/06 06:55:54;;;;;;;4.70;3.30;;;4.40;99.90;;;;;;6353473;28;20459;-62
2022/01/06 06:58:57;;;;;;;4.30;3.20;;;4.40;99.90;;;;;;6353605;27;20463;-62
2022/01/06 07:02:00;;;;;;;6.03;4.10;;;4.40;99.90;;;;;;6354277;27;20474;-62
2022/01/06 07:05:04;;;;;;;7.10;4.63;;;4.40;99.90;;;;;;6355150;27;20471;-62
2022/01/06 07:08:07;;;;;;;5.53;4.57;;;4.30;99.90;;;;;;6353877;27;20480;-62
2022/01/06 07:11:12;;;;;;;4.20;3.80;;;4.40;99.90;;;;;;6353149;27;20471;-63
2022/01/06 07:14:15;;;;;;;5.97;4.07;;;4.30;99.90;;;;;;6353140;27;20470;-63
2022/01/06 07:17:18;;;;;;;6.80;5.50;;;4.40;99.90;;;;;;6353417;27;20459;-62
2022/01/06 07:20:21;;;;;;;5.30;4.53;;;4.40;99.90;;;;;;6352786;27;20467;-63
2022/01/06 07:23:24;;;;;;;5.10;4.60;;;4.40;99.90;;;;;;6353169;27;20475;-62
2022/01/06 07:26:29;;;;;;;6.07;5.43;;;4.50;99.90;;;;;;6352857;27;20476;-62
2022/01/06 07:29:32;;;;;;;6.70;5.00;;;4.50;99.90;;;;;;6353339;27;20964;-63
2022/01/06 07:32:42;;;;;;;6.40;5.30;;;4.50;99.90;;;;;;6353608;27;20460;-63
2022/01/06 07:35:46;;;;;;;7.20;5.90;;;4.50;99.90;;;;;;6353861;27;20950;-62
2022/01/06 07:38:49;;;;;;;9.40;6.20;;;4.50;99.90;;;;;;6353397;27;20467;-63
2022/01/06 07:41:53;;;;;;;6.43;4.47;;;4.60;99.90;;;;;;6352672;27;20479;-63
2022/01/06 07:44:59;;;;;;;5.37;4.27;;;4.70;99.90;;;;;;6353248;27;20482;-63
2022/01/06 07:48:04;;;;;;;5.00;4.30;;;4.70;99.90;;;;;;6352424;27;20486;-62
2022/01/06 07:51:07;;;;;;;5.27;3.70;;;4.80;99.90;;;;;;6352142;27;20479;-63
2022/01/06 07:54:10;;;;;;;6.17;4.50;;;4.80;99.90;;;;;;6353048;27;20467;-63
2022/01/06 07:57:14;;;;;;;4.00;3.70;;;5.00;99.90;;;;;;6352620;27;20490;-63
2022/01/06 08:00:19;;;;;;;3.80;3.50;;;5.00;99.90;;;;;;6351826;27;20476;-63
2022/01/06 08:03:22;;;;;;;5.43;4.40;;;5.10;99.90;;;;;;6352225;27;20471;-63
2022/01/06 08:06:25;;;;;;;4.90;4.00;;;5.10;99.90;;;;;;6352352;27;20475;-63
2022/01/06 08:09:28;;;;;;;6.37;5.73;;;5.20;99.90;;;;;;6352071;27;20475;-63
2022/01/06 08:12:32;;;;;;;4.70;4.27;;;5.20;99.90;;;;;;6351957;27;20822;-62
2022/01/06 08:15:36;;;;;;;5.60;5.00;;;5.40;99.90;;;;;;6351947;27;20535;-62
2022/01/06 08:18:39;;;;;;;4.40;4.00;;;5.50;99.90;;;;;;6352356;27;20500;-62
2022/01/06 08:21:42;;;;;;;5.50;4.53;;;5.60;99.90;;;;;;6351199;27;20468;-63
2022/01/06 08:24:45;;;;;;;3.53;3.23;;;5.80;99.90;;;;;;6351526;27;20446;-63
2022/01/06 08:27:49;;;;;;;3.53;2.87;;;5.90;99.90;;;;;;6351456;27;20450;-62
2022/01/06 08:30:53;;;;;;;3.33;3.03;;;6.00;99.90;;;;;;6351582;27;20460;-62
2022/01/06 08:33:56;;;;;;;3.70;3.40;;;6.10;99.90;;;;;;6351374;27;20464;-62
2022/01/06 08:36:59;;;;;;;3.33;3.03;;;6.40;99.60;;;;;;6346976;27;20464;-62
2022/01/06 08:40:02;;;;;;;3.63;3.27;;;6.60;99.30;;;;;;6351185;27;20482;-64
2022/01/06 08:43:07;;;;;;;3.57;3.27;;;6.80;98.80;;;;;;6351752;27;20467;-63
2022/01/06 08:46:10;;;;;;;3.17;2.87;;;7.00;98.00;;;;;;6350785;27;20468;-63
2022/01/06 08:49:14;;;;;;;4.87;3.50;;;7.10;97.70;;;;;;6350428;27;20987;-63
2022/01/06 08:52:17;;;;;;;4.47;3.60;;;7.30;97.50;;;;;;6350598;27;20968;-63
2022/01/06 08:55:20;;;;;;;4.33;4.00;;;7.30;97.50;;;;;;6350701;27;20463;-63
2022/01/06 08:58:25;;;;;;;4.37;4.00;;;7.40;97.40;;;;;;6351534;27;20474;-63
2022/01/06 09:01:28;;;;;;;5.80;3.53;;;7.50;97.20;;;;;;6350354;27;20471;-63
2022/01/06 09:04:31;;;;;;;4.73;4.30;;;7.70;97.10;;;;;;6350781;27;20545;-63
2022/01/06 09:07:35;;;;;;;5.17;4.67;;;7.70;96.00;;;;;;6350873;27;20478;-63
2022/01/06 09:10:38;;;;;;;4.30;3.90;;;7.60;95.90;;;;;;6350061;27;20475;-63
2022/01/06 09:14:02;;;;;;;4.27;3.87;;;7.70;96.40;;;;;;6350977;27;20479;-63
2022/01/06 09:17:05;;;;;;;5.67;4.50;;;7.90;96.20;;;;;;6350413;27;20482;-63
2022/01/06 09:20:09;;;;;;;4.37;3.97;;;7.80;95.30;;;;;;6350107;27;20609;-63
2022/01/06 09:23:15;;;;;;;4.77;4.27;;;7.90;95.50;;;;;;6350881;27;20494;-63
2022/01/06 09:26:19;;;;;;;4.10;3.70;;;8.10;96.30;;;;;;6349971;27;20532;-63
2022/01/06 09:29:23;;;;;;;5.23;4.40;;;8.40;95.40;;;;;;6350364;27;20483;-63
2022/01/06 09:32:27;;;;;;;5.13;4.63;;;8.60;94.60;;;;;;6350408;27;20535;-63
2022/01/06 09:35:30;;;;;;;5.07;4.10;;;8.70;93.80;;;;;;6350485;27;20478;-63
2022/01/06 09:38:33;;;;;;;4.00;3.70;;;8.70;93.60;;;;;;6350481;27;20459;-63
2022/01/06 09:41:36;;;;;;;5.17;4.20;;;8.70;93.90;;;;;;6340653;27;20463;-64
2022/01/06 09:44:42;;;;;;;4.17;3.87;;;8.80;93.50;;;;;;6350134;27;20471;-63
2022/01/06 09:47:46;;;;;;;3.60;3.30;;;8.80;93.10;;;;;;6350134;27;20489;-64
2022/01/06 09:50:50;;;;;;;4.00;3.63;;;8.70;93.00;;;;;;6350355;27;20474;-66
2022/01/06 09:53:55;;;;;;;4.43;4.03;;;8.50;93.10;;;;;;6350448;27;20804;-66
2022/01/06 09:56:58;;;;;;;3.70;3.40;;;8.40;93.30;;;;;;6351681;27;20467;-66
2022/01/06 10:00:07;;;;;;;3.83;3.53;;;8.50;93.50;;;;;;6352514;27;20807;-66
2022/01/06 10:03:12;;;;;;;3.70;3.33;;;9.00;93.40;;;;;;6351455;27;20987;-65
2022/01/06 10:06:17;;;;;;;4.63;3.60;;;9.10;92.10;;;;;;6350683;28;20972;-63
2022/01/06 10:09:25;;;;;;;3.67;3.37;;;8.90;92.60;;;;;;6342188;28;20565;-63
2022/01/06 10:12:28;;;;;;;3.90;3.60;;;8.90;92.70;;;;;;6356609;27;20768;-63
2022/01/06 10:15:33;;;;;;;4.23;3.90;;;8.90;92.20;;;;;;6350007;27;20521;-63
2022/01/06 10:18:36;;;;;;;6.90;4.20;;;9.00;92.60;;;;;;6349399;27;20971;-63
2022/01/06 10:21:46;;;;;;;4.47;4.07;;;9.20;91.80;;;;;;6326359;28;20467;-62
2022/01/06 10:24:51;;;;;;;4.20;3.80;;;9.30;91.50;;;;;;6339877;27;20466;-62
2022/01/06 10:27:56;;;;;;;4.13;3.37;;;9.40;91.70;;;;;;6357775;27;20474;-62
2022/01/06 10:31:06;;;;;;;4.70;4.30;;;9.50;91.10;;;;;;6355325;27;20467;-63
2022/01/06 10:34:09;;;;;;;5.67;4.30;;;9.70;90.40;;;;;;6378374;27;20482;-63
2022/01/06 10:37:25;;;;;;;6.47;4.57;;;9.90;90.30;;;;;;6373596;27;20467;-63
2022/01/06 10:40:29;;;;;;;5.00;3.80;;;10.10;88.90;;;;;;6353154;28;20502;-63
2022/01/06 10:43:35;;;;;;;4.83;3.37;;;10.20;86.80;;;;;;6347467;27;20464;-63
2022/01/06 10:46:41;;;;;;;6.47;4.30;;;10.00;86.40;;;;;;6350345;28;20479;-63
2022/01/06 10:49:45;;;;;;;7.63;4.53;;;9.70;88.10;;;;;;6353136;27;20558;-63
2022/01/06 10:52:49;;;;;;;7.67;4.20;;;9.40;89.70;;;;;;6352727;27;20471;-63
2022/01/06 10:55:52;;;;;;;6.17;4.23;;;9.00;90.00;;;;;;6353930;28;20475;-63
2022/01/06 10:58:59;;;;;;;8.53;5.00;;;8.70;90.60;;;;;;6353829;28;20944;-64
2022/01/06 11:02:05;;;;;;;5.30;4.30;;;8.50;91.30;;;;;;6353562;28;21037;-63
2022/01/06 11:05:09;;;;;;;4.93;4.43;;;8.30;92.00;;;;;;6352721;27;20558;-63
2022/01/06 11:08:13;;;;;;;4.93;4.53;;;8.10;92.40;;;;;;6353472;28;20475;-65
2022/01/06 11:11:31;;;;;;;3.63;3.27;;;8.00;92.60;;;;;;6355479;28;20478;-64
2022/01/06 11:14:34;;;;;;;4.13;3.53;;;8.00;92.60;;;;;;6352145;27;20471;-63
2022/01/06 11:17:39;;;;;;;3.57;3.27;;;8.00;91.80;;;;;;6351865;28;20787;-63
2022/01/06 11:20:43;;;;;;;5.10;3.00;;;8.10;91.60;;;;;;6352569;28;20506;-63
2022/01/06 11:23:46;;;;;;;4.60;3.03;;;9.80;91.10;;;;;;6349681;27;20471;-63
2022/01/06 11:27:02;;;;;;;3.60;3.30;;;13.90;80.40;;;;;;6352259;27;20572;-63
2022/01/06 11:30:11;;;;;;;2.93;2.63;;;17.60;59.80;;;;;;6350041;28;20471;-64
2022/01/06 11:33:16;;;;;;;3.33;3.03;;;17.30;53.10;;;;;;6349681;28;20478;-63
2022/01/06 11:36:21;;;;;;;4.03;2.40;;;15.60;54.50;;;;;;6342085;27;20471;-63
2022/01/06 11:39:29;;;;;;;2.90;2.13;;;14.50;56.60;;;;;;6351048;28;20815;-63
2022/01/06 11:42:32;;;;;;;1.93;1.80;;;15.90;56.20;;;;;;6349584;28;20478;-63
2022/01/06 11:45:35;;;;;;;3.40;2.30;;;19.80;49.80;;;;;;6351287;28;20866;-65
2022/01/06 11:48:52;;;;;;;2.40;2.20;;;23.00;41.90;;;;;;6337118;28;20246;-64
2022/01/06 11:52:08;;;;;;;2.87;2.37;;;25.00;34.60;;;;;;6343040;27;20198;-64
2022/01/06 11:55:14;;;;;;;2.00;1.50;;;24.40;33.80;;;;;;6372823;27;20604;-63
2022/01/06 11:58:21;;;;;;;2.13;1.93;;;25.60;30.50;;;;;;6352054;28;20224;-64
2022/01/06 12:01:24;;;;;;;1.90;1.70;;;24.20;29.80;;;;;;6352207;27;20240;-64
2022/01/06 12:04:29;;;;;;;2.40;2.20;;;24.30;30.40;;;;;;6352314;27;20253;-64
2022/01/06 12:07:32;;;;;;;1.97;1.50;;;25.60;29.60;;;;;;6351582;27;20316;-63
2022/01/06 12:10:40;;;;;;;1.67;1.57;;;24.90;29.20;;;;;;6351678;27;20240;-63
2022/01/06 12:13:44;;;;;;;2.80;1.90;;;23.90;30.00;;;;;;6351937;27;20233;-62
2022/01/06 12:16:48;;;;;;;2.40;1.80;;;24.20;31.10;;;;;;6358896;27;20235;-64
2022/01/06 12:19:54;;;;;;;3.33;1.77;;;26.60;29.00;;;;;;6352964;27;20221;-64
2022/01/06 12:22:57;;;;;;;2.03;1.73;;;28.80;26.80;;;;;;6349840;27;20234;-64
2022/01/06 12:26:03;;;;;;;2.20;2.00;;;30.30;24.60;;;;;;6351096;28;20690;-64
2022/01/06 12:29:14;;;;;;;2.50;2.13;;;31.30;23.60;;;;;;6351003;27;20242;-64
2022/01/06 12:32:20;;;;;;;2.73;2.10;;;32.30;23.00;;;;;;6349954;27;20224;-64
2022/01/06 12:35:37;;;;;;;2.40;2.17;;;33.10;21.90;;;;;;6351386;27;20224;-66
2022/01/06 12:38:40;;;;;;;2.20;1.70;;;33.70;21.10;;;;;;6350507;28;20357;-65
2022/01/06 12:41:44;;;;;;;2.20;2.00;;;32.90;20.30;;;;;;6351067;27;20247;-65
2022/01/06 12:44:47;;;;;;;1.80;1.70;;;29.90;21.50;;;;;;6349920;28;20222;-64
2022/01/06 12:47:55;;;;;;;2.10;1.67;;;26.00;24.40;;;;;;6342958;27;20237;-63
2022/01/06 12:51:00;;;;;;;2.03;1.73;;;23.60;26.20;;;;;;6330194;28;20225;-63
2022/01/06 12:54:05;;;;;;;2.20;1.30;;;23.10;26.20;;;;;;6346487;28;20233;-63
2022/01/06 12:57:11;;;;;;;2.90;1.07;;;21.60;25.70;;;;;;6351266;27;20605;-63
2022/01/06 13:00:15;;;;;;;0.90;0.50;;;19.70;26.10;;;;;;6349765;28;20658;-64
2022/01/06 13:03:26;;;;;;;0.93;0.80;;;18.30;26.10;;;;;;6351148;27;20470;-63
2022/01/06 13:06:35;;;;;;;1.70;0.70;;;17.80;27.00;;;;;;6350637;27;20475;-63
2022/01/06 13:09:40;;;;;;;4.93;1.00;;;18.70;26.30;;;;;;6350830;27;20968;-63
2022/01/06 13:12:43;;;;;;;0.60;0.60;;;20.40;24.80;;;;;;6334571;28;20221;-65
2022/01/06 13:15:46;;;;;;;5.03;0.63;;;21.90;24.00;;;;;;6325942;28;20231;-64
2022/01/06 13:19:02;;;;;;;2.20;0.70;;;22.80;23.30;;;;;;6344005;27;20205;-64
2022/01/06 13:22:07;;;;;;;1.50;0.50;;;23.90;22.30;;;;;;6351211;27;20232;-64
2022/01/06 13:25:11;;;;;;;1.90;0.63;;;24.70;21.50;;;;;;6350820;27;20230;-63
2022/01/06 13:28:16;;;;;;;0.70;0.50;;;25.40;21.20;;;;;;6350489;27;20225;-64
2022/01/06 13:31:21;;;;;;;2.23;0.50;;;26.60;20.60;;;;;;6347476;27;20229;-65
2022/01/06 13:34:24;;;;;;;1.27;0.53;;;27.50;19.50;;;;;;6327619;28;20686;-65
2022/01/06 13:37:31;;;;;;;0.80;0.40;;;26.80;19.10;;;;;;6324842;28;20245;-65
2022/01/06 13:40:44;;;;;;;1.90;0.77;;;25.30;19.80;;;;;;6324610;28;20242;-65
2022/01/06 13:43:56;;;;;;;1.70;0.70;;;25.00;20.40;;;;;;6324308;27;20222;-64
2022/01/06 13:47:08;;;;;;;2.57;0.73;;;25.70;20.70;;;;;;6324175;28;20577;-66
2022/01/06 13:53:42;;;;;;;1.00;0.57;;;26.30;19.60;;;;;;6324517;28;20287;-65
2022/01/06 13:56:45;;;;;;;1.40;0.80;;;26.00;20.00;;;;;;6318921;28;20238;-66
2022/01/06 13:59:49;;;;;;;0.77;0.40;;;24.80;19.90;;;;;;6329600;27;20237;-64
2022/01/06 14:02:52;;;;;;;2.50;0.53;;;22.70;21.00;;;;;;6352706;27;20237;-64
2022/01/06 14:05:56;;;;;;;1.00;0.60;;;19.70;22.90;;;;;;6354970;27;20249;-63
2022/01/06 14:09:02;;;;;;;0.50;0.30;;;18.10;23.70;;;;;;6354143;27;20225;-64
2022/01/06 14:12:06;;;;;;;1.00;0.50;;;17.20;25.40;;;;;;6354643;27;20470;-63
2022/01/06 14:15:10;;;;;;;0.70;0.50;;;17.00;25.40;;;;;;6354696;27;20531;-64
2022/01/06 14:18:13;;;;;;;0.50;0.40;;;17.30;25.50;;;;;;6339465;27;20467;-63
2022/01/06 14:21:16;;;;;;;3.73;0.80;;;17.70;25.30;;;;;;6328849;28;20478;-63
2022/01/06 14:24:21;;;;;;;0.80;0.50;;;16.80;25.20;;;;;;6328997;28;20795;-63
2022/01/06 14:27:24;;;;;;;1.37;0.50;;;15.70;26.70;;;;;;6328930;28;20468;-63
2022/01/06 14:30:27;;;;;;;1.40;0.70;;;14.70;27.50;;;;;;6328487;28;20479;-63
2022/01/06 14:33:31;;;;;;;0.70;0.53;;;13.80;27.70;;;;;;6328945;28;20990;-62
2022/01/06 14:36:34;;;;;;;1.90;0.70;;;13.50;28.50;;;;;;6328761;28;20475;-66
2022/01/06 14:39:38;;;;;;;1.70;0.80;;;13.00;28.90;;;;;;6329163;27;20456;-63
2022/01/06 14:42:42;;;;;;;2.40;0.83;;;12.20;29.60;;;;;;6327401;28;20461;-63
2022/01/06 14:45:45;;;;;;;1.37;0.90;;;11.50;31.30;;;;;;6327071;28;20444;-63
2022/01/06 14:48:49;;;;;;;0.80;0.63;;;10.70;31.70;;;;;;6326282;28;20818;-63
2022/01/06 14:51:55;;;;;;;1.33;0.83;;;10.10;33.00;;;;;;6339525;27;20451;-62
2022/01/06 14:55:00;;;;;;;0.80;0.80;;;9.60;35.00;;;;;;6352262;27;20467;-62
2022/01/06 14:58:04;;;;;;;0.80;0.80;;;9.30;36.20;;;;;;6345812;27;20471;-64
2022/01/06 15:01:10;;;;;;;1.73;0.80;;;8.90;37.00;;;;;;6353048;27;20801;-62
2022/01/06 15:04:14;;;;;;;1.53;1.00;;;8.60;36.70;;;;;;6354134;27;20592;-62
2022/01/06 15:07:17;;;;;;;0.97;0.70;;;8.30;38.20;;;;;;6352207;27;20595;-62
2022/01/06 15:10:22;;;;;;;0.80;0.80;;;8.10;39.00;;;;;;6353308;27;20474;-62
2022/01/06 15:13:25;;;;;;;0.90;0.90;;;8.00;39.20;;;;;;6353595;27;20478;-62
2022/01/06 15:16:28;;;;;;;1.23;0.70;;;7.90;39.80;;;;;;6350625;27;20487;-62
2022/01/06 15:19:32;;;;;;;1.13;1.07;;;7.70;40.50;;;;;;6327916;28;20953;-63
2022/01/06 15:22:35;;;;;;;1.40;0.97;;;7.50;40.80;;;;;;6326365;28;20975;-63
2022/01/06 15:25:40;;;;;;;0.70;0.70;;;7.40;41.30;;;;;;6327612;28;20481;-62
2022/01/06 15:28:44;;;;;;;1.40;1.00;;;7.40;43.80;;;;;;6327147;28;20487;-63
2022/01/06 15:31:47;;;;;;;3.53;1.10;;;7.40;45.10;;;;;;6327245;28;20944;-64
2022/01/06 15:34:51;;;;;;;2.90;1.60;;;7.40;43.10;;;;;;6326226;28;20973;-64
2022/01/06 15:37:54;;;;;;;0.90;0.90;;;7.40;43.30;;;;;;6327485;28;20468;-66
2022/01/06 15:40:58;;;;;;;1.63;0.97;;;7.30;43.00;;;;;;6349629;27;20475;-64
2022/01/06 15:44:02;;;;;;;1.90;1.13;;;7.30;43.10;;;;;;6349848;27;20470;-65
2022/01/06 15:47:05;;;;;;;2.77;1.07;;;7.20;44.10;;;;;;6351830;27;20463;-64
2022/01/06 15:50:10;;;;;;;1.47;1.00;;;7.00;44.00;;;;;;6351530;27;20460;-64
2022/01/06 15:53:13;;;;;;;1.00;0.93;;;6.90;44.30;;;;;;6350650;27;20490;-64
2022/01/06 15:56:18;;;;;;;0.90;0.90;;;6.90;44.80;;;;;;6351404;27;20479;-65
2022/01/06 15:59:27;;;;;;;1.13;1.10;;;6.80;45.00;;;;;;6346074;27;20472;-64
2022/01/06 16:05:51;;;;;;;1.40;1.30;;;6.70;45.50;;;;;;6345230;27;20533;-65
2022/01/06 16:08:55;;;;;;;1.33;1.07;;;6.60;45.60;;;;;;6351327;27;20475;-63
2022/01/06 16:11:59;;;;;;;1.30;1.20;;;6.60;45.80;;;;;;6351302;27;20474;-65
2022/01/06 16:15:03;;;;;;;1.63;1.53;;;6.60;46.00;;;;;;6351520;27;20478;-63
2022/01/06 16:18:06;;;;;;;1.80;1.53;;;6.50;46.10;;;;;;6350690;27;20479;-63
2022/01/06 16:21:10;;;;;;;1.80;1.60;;;6.50;46.30;;;;;;6350574;28;20486;-63
2022/01/06 16:24:13;;;;;;;2.37;1.80;;;6.50;46.30;;;;;;6351643;27;20463;-63